sensor_id;sensor_type;location;lat;lon;timestamp;pressure;altitude;pressure_sealevel;temperature;humidity
57827;BME280;43656;57.746;11.780;2023-08-07T00:01:00;99736.16;;;15.96;100.00
57827;BME280;43656;57.746;11.780;2023-08-07T00:03:26;99754.13;;;16.03;100.00
57827;BME280;43656;57.746;11.780;2023-08-07T00:05:52;99699.84;;;16.03;100.00
57827;BME280;43656;57.746;11.780;2023-08-07T00:08:18;99703.94;;;16.10;100.00
57827;BME280;43656;57.746;11.780;2023-08-07T00:10:43;99689.25;;;16.01;100.00
57827;BME280;43656;57.746;11.780;2023-08-07T00:13:09;99675.66;;;15.96;100.00
57827;BME280;43656;57.746;11.780;2023-08-07T00:15:37;99664.19;;;15.89;100.00
57827;BME280;43656;57.746;11.780;2023-08-07T00:18:03;99635.72;;;15.91;100.00
57827;BME280;43656;57.746;11.780;2023-08-07T00:20:28;99676.38;;;15.81;100.00
57827;BME280;43656;57.746;11.780;2023-08-07T00:22:53;99689.94;;;15.81;100.00
57827;BME280;43656;57.746;11.780;2023-08-07T00:25:19;99669.69;;;15.99;100.00
57827;BME280;43656;57.746;11.780;2023-08-07T00:27:44;99643.38;;;16.00;100.00
57827;BME280;43656;57.746;11.780;2023-08-07T00:30:11;99661.75;;;15.87;100.00
57827;BME280;43656;57.746;11.780;2023-08-07T00:32:36;99677.22;;;15.87;100.00
57827;BME280;43656;57.746;11.780;2023-08-07T00:35:01;99644.38;;;15.83;100.00
57827;BME280;43656;57.746;11.780;2023-08-07T00:37:27;99644.97;;;15.95;100.00
57827;BME280;43656;57.746;11.780;2023-08-07T00:39:52;99651.19;;;15.91;100.00
57827;BME280;43656;57.746;11.780;2023-08-07T00:42:18;99634.69;;;15.97;100.00
57827;BME280;43656;57.746;11.780;2023-08-07T00:44:43;99625.50;;;16.09;100.00
57827;BME280;43656;57.746;11.780;2023-08-07T00:47:08;99631.97;;;15.97;100.00
57827;BME280;43656;57.746;11.780;2023-08-07T00:49:34;99610.75;;;15.84;100.00
57827;BME280;43656;57.746;11.780;2023-08-07T00:52:01;99629.03;;;16.04;100.00
57827;BME280;43656;57.746;11.780;2023-08-07T00:54:26;99650.34;;;16.38;100.00
57827;BME280;43656;57.746;11.780;2023-08-07T00:56:52;99680.44;;;16.26;100.00
57827;BME280;43656;57.746;11.780;2023-08-07T00:59:18;99635.88;;;16.22;100.00
57827;BME280;43656;57.746;11.780;2023-08-07T01:01:44;99604.44;;;16.31;100.00
57827;BME280;43656;57.746;11.780;2023-08-07T01:04:09;99598.00;;;16.53;100.00
57827;BME280;43656;57.746;11.780;2023-08-07T01:06:35;99585.47;;;16.36;100.00
57827;BME280;43656;57.746;11.780;2023-08-07T01:09:00;99621.25;;;16.28;100.00
57827;BME280;43656;57.746;11.780;2023-08-07T01:11:46;99603.84;;;16.19;100.00
57827;BME280;43656;57.746;11.780;2023-08-07T01:14:28;99605.00;;;16.33;100.00
57827;BME280;43656;57.746;11.780;2023-08-07T01:17:10;99568.03;;;16.17;100.00
57827;BME280;43656;57.746;11.780;2023-08-07T01:19:37;99562.75;;;15.90;100.00
57827;BME280;43656;57.746;11.780;2023-08-07T01:22:07;99551.38;;;15.98;100.00
57827;BME280;43656;57.746;11.780;2023-08-07T01:24:33;99542.41;;;15.92;100.00
57827;BME280;43656;57.746;11.780;2023-08-07T01:27:07;99546.78;;;15.93;100.00
57827;BME280;43656;57.746;11.780;2023-08-07T01:29:59;99533.75;;;15.90;100.00
57827;BME280;43656;57.746;11.780;2023-08-07T01:32:49;99531.88;;;16.01;100.00
57827;BME280;43656;57.746;11.780;2023-08-07T01:35:21;99517.50;;;16.06;100.00
57827;BME280;43656;57.746;11.780;2023-08-07T01:37:51;99530.78;;;15.97;100.00
57827;BME280;43656;57.746;11.780;2023-08-07T01:40:20;99506.38;;;16.12;100.00
57827;BME280;43656;57.746;11.780;2023-08-07T01:42:46;99479.16;;;15.77;100.00
57827;BME280;43656;57.746;11.780;2023-08-07T01:45:12;99503.47;;;16.29;100.00
57827;BME280;43656;57.746;11.780;2023-08-07T01:47:38;99508.31;;;16.22;100.00
57827;BME280;43656;57.746;11.780;2023-08-07T01:50:03;99501.56;;;16.40;100.00
57827;BME280;43656;57.746;11.780;2023-08-07T01:52:29;99459.50;;;16.37;100.00
57827;BME280;43656;57.746;11.780;2023-08-07T01:54:55;99450.81;;;16.61;100.00
57827;BME280;43656;57.746;11.780;2023-08-07T01:57:20;99415.75;;;16.39;100.00
57827;BME280;43656;57.746;11.780;2023-08-07T01:59:45;99388.63;;;16.13;100.00
57827;BME280;43656;57.746;11.780;2023-08-07T02:02:11;99432.09;;;16.59;100.00
57827;BME280;43656;57.746;11.780;2023-08-07T02:04:36;99436.69;;;16.59;100.00
57827;BME280;43656;57.746;11.780;2023-08-07T02:07:02;99430.16;;;16.65;100.00
57827;BME280;43656;57.746;11.780;2023-08-07T02:09:27;99407.91;;;16.63;100.00
57827;BME280;43656;57.746;11.780;2023-08-07T02:11:52;99401.38;;;16.69;100.00
57827;BME280;43656;57.746;11.780;2023-08-07T02:14:18;99418.22;;;16.61;100.00
57827;BME280;43656;57.746;11.780;2023-08-07T02:16:43;99419.84;;;16.31;100.00
57827;BME280;43656;57.746;11.780;2023-08-07T02:19:08;99413.88;;;16.55;100.00
57827;BME280;43656;57.746;11.780;2023-08-07T02:21:34;99376.41;;;16.31;100.00
57827;BME280;43656;57.746;11.780;2023-08-07T02:23:59;99412.25;;;16.28;100.00
57827;BME280;43656;57.746;11.780;2023-08-07T02:26:24;99387.28;;;16.57;100.00
57827;BME280;43656;57.746;11.780;2023-08-07T02:28:50;99391.88;;;16.51;100.00
57827;BME280;43656;57.746;11.780;2023-08-07T02:31:15;99392.41;;;16.48;100.00
57827;BME280;43656;57.746;11.780;2023-08-07T02:33:41;99372.91;;;16.36;100.00
57827;BME280;43656;57.746;11.780;2023-08-07T02:36:07;99326.75;;;16.20;100.00
57827;BME280;43656;57.746;11.780;2023-08-07T02:38:32;99340.28;;;16.51;100.00
57827;BME280;43656;57.746;11.780;2023-08-07T02:40:57;99331.09;;;16.11;100.00
57827;BME280;43656;57.746;11.780;2023-08-07T02:43:23;99337.34;;;16.42;100.00
57827;BME280;43656;57.746;11.780;2023-08-07T02:45:48;99328.09;;;16.33;100.00
57827;BME280;43656;57.746;11.780;2023-08-07T02:48:13;99316.72;;;16.26;100.00
57827;BME280;43656;57.746;11.780;2023-08-07T02:50:39;99324.81;;;16.41;100.00
57827;BME280;43656;57.746;11.780;2023-08-07T02:53:05;99314.50;;;16.49;100.00
57827;BME280;43656;57.746;11.780;2023-08-07T02:55:31;99303.94;;;16.32;100.00
57827;BME280;43656;57.746;11.780;2023-08-07T02:57:56;99318.84;;;16.55;100.00
57827;BME280;43656;57.746;11.780;2023-08-07T03:00:21;99309.91;;;16.34;100.00
57827;BME280;43656;57.746;11.780;2023-08-07T03:02:47;99294.13;;;16.51;100.00
57827;BME280;43656;57.746;11.780;2023-08-07T03:05:12;99269.47;;;16.32;100.00
57827;BME280;43656;57.746;11.780;2023-08-07T03:07:37;99274.28;;;16.61;100.00
57827;BME280;43656;57.746;11.780;2023-08-07T03:10:03;99285.47;;;16.39;100.00
57827;BME280;43656;57.746;11.780;2023-08-07T03:12:29;99277.88;;;16.41;100.00
57827;BME280;43656;57.746;11.780;2023-08-07T03:14:55;99282.44;;;16.61;100.00
57827;BME280;43656;57.746;11.780;2023-08-07T03:17:20;99277.56;;;16.58;100.00
57827;BME280;43656;57.746;11.780;2023-08-07T03:19:45;99263.47;;;16.51;100.00
57827;BME280;43656;57.746;11.780;2023-08-07T03:22:11;99260.19;;;16.49;100.00
57827;BME280;43656;57.746;11.780;2023-08-07T03:24:37;99277.56;;;16.48;100.00
57827;BME280;43656;57.746;11.780;2023-08-07T03:27:03;99268.38;;;16.28;100.00
57827;BME280;43656;57.746;11.780;2023-08-07T03:29:28;99246.41;;;16.30;100.00
57827;BME280;43656;57.746;11.780;2023-08-07T03:31:53;99259.66;;;16.47;100.00
57827;BME280;43656;57.746;11.780;2023-08-07T03:34:19;99251.03;;;16.29;100.00
57827;BME280;43656;57.746;11.780;2023-08-07T03:36:45;99223.34;;;16.27;100.00
57827;BME280;43656;57.746;11.780;2023-08-07T03:39:10;99240.38;;;16.53;100.00
57827;BME280;43656;57.746;11.780;2023-08-07T03:41:37;99230.97;;;16.20;100.00
57827;BME280;43656;57.746;11.780;2023-08-07T03:44:03;99222.25;;;16.28;100.00
57827;BME280;43656;57.746;11.780;2023-08-07T03:46:28;99228.44;;;16.39;100.00
57827;BME280;43656;57.746;11.780;2023-08-07T03:48:53;99226.88;;;16.17;100.00
57827;BME280;43656;57.746;11.780;2023-08-07T03:51:19;99217.41;;;16.05;100.00
57827;BME280;43656;57.746;11.780;2023-08-07T03:53:44;99225.00;;;16.23;100.00
57827;BME280;43656;57.746;11.780;2023-08-07T03:56:10;99234.19;;;16.27;100.00
57827;BME280;43656;57.746;11.780;2023-08-07T03:58:37;99241.78;;;16.30;100.00
57827;BME280;43656;57.746;11.780;2023-08-07T04:01:02;99215.75;;;16.24;100.00
57827;BME280;43656;57.746;11.780;2023-08-07T04:03:28;99216.53;;;16.35;100.00
57827;BME280;43656;57.746;11.780;2023-08-07T04:05:54;99236.88;;;16.37;100.00
57827;BME280;43656;57.746;11.780;2023-08-07T04:08:20;99173.72;;;16.11;100.00
57827;BME280;43656;57.746;11.780;2023-08-07T04:11:04;99210.25;;;16.44;100.00
57827;BME280;43656;57.746;11.780;2023-08-07T04:13:30;99220.03;;;16.40;100.00
57827;BME280;43656;57.746;11.780;2023-08-07T04:15:57;99216.81;;;16.28;100.00
57827;BME280;43656;57.746;11.780;2023-08-07T04:18:23;99210.31;;;16.24;100.00
57827;BME280;43656;57.746;11.780;2023-08-07T04:20:55;99218.47;;;16.19;100.00
57827;BME280;43656;57.746;11.780;2023-08-07T04:23:22;99217.84;;;16.53;100.00
57827;BME280;43656;57.746;11.780;2023-08-07T04:25:47;99197.00;;;16.33;100.00
57827;BME280;43656;57.746;11.780;2023-08-07T04:28:13;99181.69;;;16.57;100.00
57827;BME280;43656;57.746;11.780;2023-08-07T04:30:40;99157.56;;;16.56;100.00
57827;BME280;43656;57.746;11.780;2023-08-07T04:33:05;99176.25;;;16.62;100.00
57827;BME280;43656;57.746;11.780;2023-08-07T04:35:31;99166.47;;;16.61;100.00
57827;BME280;43656;57.746;11.780;2023-08-07T04:37:56;99172.69;;;16.72;100.00
57827;BME280;43656;57.746;11.780;2023-08-07T04:40:22;99168.31;;;16.71;100.00
57827;BME280;43656;57.746;11.780;2023-08-07T04:42:49;99161.28;;;16.65;100.00
57827;BME280;43656;57.746;11.780;2023-08-07T04:45:15;99166.22;;;16.63;100.00
57827;BME280;43656;57.746;11.780;2023-08-07T04:47:40;99165.91;;;16.70;100.00
57827;BME280;43656;57.746;11.780;2023-08-07T04:50:06;99162.94;;;16.66;100.00
57827;BME280;43656;57.746;11.780;2023-08-07T04:52:32;99151.53;;;16.64;100.00
57827;BME280;43656;57.746;11.780;2023-08-07T04:54:58;99166.72;;;16.70;100.00
57827;BME280;43656;57.746;11.780;2023-08-07T04:57:23;99153.69;;;16.67;100.00
57827;BME280;43656;57.746;11.780;2023-08-07T04:59:48;99138.75;;;16.70;100.00
57827;BME280;43656;57.746;11.780;2023-08-07T05:02:14;99159.78;;;16.98;100.00
57827;BME280;43656;57.746;11.780;2023-08-07T05:04:39;99159.53;;;16.95;100.00
57827;BME280;43656;57.746;11.780;2023-08-07T05:07:05;99163.88;;;16.96;100.00
57827;BME280;43656;57.746;11.780;2023-08-07T05:09:30;99161.13;;;17.01;100.00
57827;BME280;43656;57.746;11.780;2023-08-07T05:11:56;99172.06;;;16.90;100.00
57827;BME280;43656;57.746;11.780;2023-08-07T05:14:21;99160.63;;;16.94;100.00
57827;BME280;43656;57.746;11.780;2023-08-07T05:16:48;99156.06;;;16.89;100.00
57827;BME280;43656;57.746;11.780;2023-08-07T05:19:13;99158.94;;;17.03;100.00
57827;BME280;43656;57.746;11.780;2023-08-07T05:21:38;99152.72;;;16.97;100.00
57827;BME280;43656;57.746;11.780;2023-08-07T05:24:04;99119.44;;;16.76;100.00
57827;BME280;43656;57.746;11.780;2023-08-07T05:26:30;99141.38;;;16.85;100.00
57827;BME280;43656;57.746;11.780;2023-08-07T05:28:55;99113.41;;;16.84;100.00
57827;BME280;43656;57.746;11.780;2023-08-07T05:31:23;99134.03;;;16.90;100.00
57827;BME280;43656;57.746;11.780;2023-08-07T05:33:49;99127.56;;;16.81;100.00
57827;BME280;43656;57.746;11.780;2023-08-07T05:36:14;99130.44;;;16.95;100.00
57827;BME280;43656;57.746;11.780;2023-08-07T05:38:39;99126.84;;;17.05;100.00
57827;BME280;43656;57.746;11.780;2023-08-07T05:41:05;99133.63;;;17.12;100.00
57827;BME280;43656;57.746;11.780;2023-08-07T05:43:30;99083.75;;;16.93;100.00
57827;BME280;43656;57.746;11.780;2023-08-07T05:45:55;99133.28;;;17.19;100.00
57827;BME280;43656;57.746;11.780;2023-08-07T05:48:21;99127.72;;;17.00;100.00
57827;BME280;43656;57.746;11.780;2023-08-07T05:50:46;99127.63;;;17.10;100.00
57827;BME280;43656;57.746;11.780;2023-08-07T05:53:12;99109.00;;;16.99;100.00
57827;BME280;43656;57.746;11.780;2023-08-07T05:55:39;99115.41;;;17.08;100.00
57827;BME280;43656;57.746;11.780;2023-08-07T05:58:06;99111.94;;;17.02;100.00
57827;BME280;43656;57.746;11.780;2023-08-07T06:00:32;99115.19;;;17.04;100.00
57827;BME280;43656;57.746;11.780;2023-08-07T06:02:57;99122.41;;;17.19;100.00
57827;BME280;43656;57.746;11.780;2023-08-07T06:05:22;99114.94;;;17.01;100.00
57827;BME280;43656;57.746;11.780;2023-08-07T06:07:48;99106.75;;;17.06;100.00
57827;BME280;43656;57.746;11.780;2023-08-07T06:10:13;99097.75;;;17.10;100.00
57827;BME280;43656;57.746;11.780;2023-08-07T06:12:39;99078.56;;;16.97;100.00
57827;BME280;43656;57.746;11.780;2023-08-07T06:15:04;99098.47;;;17.21;100.00
57827;BME280;43656;57.746;11.780;2023-08-07T06:17:30;99099.78;;;17.29;100.00
57827;BME280;43656;57.746;11.780;2023-08-07T06:19:55;99092.47;;;17.24;100.00
57827;BME280;43656;57.746;11.780;2023-08-07T06:22:21;99082.72;;;17.18;100.00
57827;BME280;43656;57.746;11.780;2023-08-07T06:24:46;99078.28;;;17.32;100.00
57827;BME280;43656;57.746;11.780;2023-08-07T06:27:11;99076.53;;;17.42;100.00
57827;BME280;43656;57.746;11.780;2023-08-07T06:29:37;99078.22;;;17.37;100.00
57827;BME280;43656;57.746;11.780;2023-08-07T06:32:02;99065.41;;;17.38;100.00
57827;BME280;43656;57.746;11.780;2023-08-07T06:34:28;99061.38;;;17.35;100.00
57827;BME280;43656;57.746;11.780;2023-08-07T06:36:53;99054.03;;;17.36;100.00
57827;BME280;43656;57.746;11.780;2023-08-07T06:39:19;99064.28;;;17.44;100.00
57827;BME280;43656;57.746;11.780;2023-08-07T06:41:44;99066.63;;;17.56;100.00
57827;BME280;43656;57.746;11.780;2023-08-07T06:44:10;99065.47;;;17.62;100.00
57827;BME280;43656;57.746;11.780;2023-08-07T06:46:35;99067.38;;;17.61;100.00
57827;BME280;43656;57.746;11.780;2023-08-07T06:49:00;99056.84;;;17.55;100.00
57827;BME280;43656;57.746;11.780;2023-08-07T06:51:26;99062.53;;;17.58;100.00
57827;BME280;43656;57.746;11.780;2023-08-07T06:53:51;99058.16;;;17.57;100.00
57827;BME280;43656;57.746;11.780;2023-08-07T06:56:17;99039.53;;;17.46;100.00
57827;BME280;43656;57.746;11.780;2023-08-07T06:58:43;99043.19;;;17.60;100.00
57827;BME280;43656;57.746;11.780;2023-08-07T07:01:08;99038.78;;;17.64;100.00
57827;BME280;43656;57.746;11.780;2023-08-07T07:03:33;99021.88;;;17.67;100.00
57827;BME280;43656;57.746;11.780;2023-08-07T07:05:59;99017.59;;;17.61;100.00
57827;BME280;43656;57.746;11.780;2023-08-07T07:08:24;99017.09;;;17.59;100.00
57827;BME280;43656;57.746;11.780;2023-08-07T07:10:49;99005.75;;;17.52;100.00
57827;BME280;43656;57.746;11.780;2023-08-07T07:13:15;99010.88;;;17.53;100.00
57827;BME280;43656;57.746;11.780;2023-08-07T07:15:40;99001.28;;;17.61;100.00
57827;BME280;43656;57.746;11.780;2023-08-07T07:18:06;99002.50;;;17.50;100.00
57827;BME280;43656;57.746;11.780;2023-08-07T07:20:31;98998.50;;;17.66;100.00
57827;BME280;43656;57.746;11.780;2023-08-07T07:22:56;98984.19;;;17.31;100.00
57827;BME280;43656;57.746;11.780;2023-08-07T07:25:22;99002.97;;;17.57;100.00
57827;BME280;43656;57.746;11.780;2023-08-07T07:27:47;98986.59;;;17.62;100.00
57827;BME280;43656;57.746;11.780;2023-08-07T07:30:13;98977.69;;;17.56;100.00
57827;BME280;43656;57.746;11.780;2023-08-07T07:32:38;98990.78;;;17.78;100.00
57827;BME280;43656;57.746;11.780;2023-08-07T07:35:04;98976.41;;;17.73;100.00
57827;BME280;43656;57.746;11.780;2023-08-07T07:37:30;98985.94;;;17.70;100.00
57827;BME280;43656;57.746;11.780;2023-08-07T07:39:56;98981.50;;;17.79;100.00
57827;BME280;43656;57.746;11.780;2023-08-07T07:42:21;98978.13;;;17.88;100.00
57827;BME280;43656;57.746;11.780;2023-08-07T07:44:47;98954.59;;;17.78;100.00
57827;BME280;43656;57.746;11.780;2023-08-07T07:47:13;98957.69;;;17.90;100.00
57827;BME280;43656;57.746;11.780;2023-08-07T07:49:38;98976.91;;;17.99;100.00
57827;BME280;43656;57.746;11.780;2023-08-07T07:52:04;98953.28;;;17.94;100.00
57827;BME280;43656;57.746;11.780;2023-08-07T07:54:30;98966.75;;;17.86;100.00
57827;BME280;43656;57.746;11.780;2023-08-07T07:56:55;98977.13;;;18.02;100.00
57827;BME280;43656;57.746;11.780;2023-08-07T07:59:21;98974.25;;;17.94;100.00
57827;BME280;43656;57.746;11.780;2023-08-07T08:01:46;98976.38;;;17.97;100.00
57827;BME280;43656;57.746;11.780;2023-08-07T08:04:11;98954.00;;;17.81;100.00
57827;BME280;43656;57.746;11.780;2023-08-07T08:06:37;98956.91;;;17.90;100.00
57827;BME280;43656;57.746;11.780;2023-08-07T08:09:03;98956.75;;;18.00;100.00
57827;BME280;43656;57.746;11.780;2023-08-07T08:11:30;98956.69;;;18.05;100.00
57827;BME280;43656;57.746;11.780;2023-08-07T08:13:56;98965.88;;;18.09;100.00
57827;BME280;43656;57.746;11.780;2023-08-07T08:16:21;98951.00;;;17.82;100.00
57827;BME280;43656;57.746;11.780;2023-08-07T08:18:46;98969.00;;;18.21;100.00
57827;BME280;43656;57.746;11.780;2023-08-07T08:21:12;98967.88;;;18.22;100.00
57827;BME280;43656;57.746;11.780;2023-08-07T08:23:38;98966.69;;;18.10;100.00
57827;BME280;43656;57.746;11.780;2023-08-07T08:26:03;98977.59;;;18.10;100.00
57827;BME280;43656;57.746;11.780;2023-08-07T08:28:28;98990.34;;;17.90;100.00
57827;BME280;43656;57.746;11.780;2023-08-07T08:30:54;98982.59;;;18.02;100.00
57827;BME280;43656;57.746;11.780;2023-08-07T08:33:20;98967.56;;;17.86;100.00
57827;BME280;43656;57.746;11.780;2023-08-07T08:35:45;98951.91;;;17.97;100.00
57827;BME280;43656;57.746;11.780;2023-08-07T08:38:10;98951.97;;;18.11;100.00
57827;BME280;43656;57.746;11.780;2023-08-07T08:40:38;98957.94;;;18.31;100.00
57827;BME280;43656;57.746;11.780;2023-08-07T08:43:05;98965.00;;;18.33;100.00
57827;BME280;43656;57.746;11.780;2023-08-07T08:45:31;98970.22;;;18.29;100.00
57827;BME280;43656;57.746;11.780;2023-08-07T08:48:02;98966.81;;;18.37;100.00
57827;BME280;43656;57.746;11.780;2023-08-07T08:50:29;98966.25;;;18.40;100.00
57827;BME280;43656;57.746;11.780;2023-08-07T08:52:55;98963.72;;;18.44;100.00
57827;BME280;43656;57.746;11.780;2023-08-07T08:55:21;98959.41;;;18.43;100.00
57827;BME280;43656;57.746;11.780;2023-08-07T08:57:47;98974.84;;;18.47;100.00
57827;BME280;43656;57.746;11.780;2023-08-07T09:00:14;98973.09;;;18.38;100.00
57827;BME280;43656;57.746;11.780;2023-08-07T09:02:51;98961.31;;;18.42;100.00
57827;BME280;43656;57.746;11.780;2023-08-07T09:05:18;98959.94;;;18.45;100.00
57827;BME280;43656;57.746;11.780;2023-08-07T09:07:46;98964.03;;;18.42;100.00
57827;BME280;43656;57.746;11.780;2023-08-07T09:10:12;98959.03;;;18.49;100.00
57827;BME280;43656;57.746;11.780;2023-08-07T09:12:48;98944.06;;;18.47;100.00
57827;BME280;43656;57.746;11.780;2023-08-07T09:15:16;98934.69;;;18.39;100.00
57827;BME280;43656;57.746;11.780;2023-08-07T09:17:42;98937.34;;;18.25;100.00
57827;BME280;43656;57.746;11.780;2023-08-07T09:20:09;98927.47;;;18.29;100.00
57827;BME280;43656;57.746;11.780;2023-08-07T09:22:40;98935.78;;;18.38;100.00
57827;BME280;43656;57.746;11.780;2023-08-07T09:25:06;98919.50;;;18.52;100.00
57827;BME280;43656;57.746;11.780;2023-08-07T09:27:32;98926.38;;;18.63;100.00
57827;BME280;43656;57.746;11.780;2023-08-07T09:29:58;98906.22;;;18.64;100.00
57827;BME280;43656;57.746;11.780;2023-08-07T09:32:24;98917.94;;;18.65;100.00
57827;BME280;43656;57.746;11.780;2023-08-07T09:34:50;98901.19;;;18.39;100.00
57827;BME280;43656;57.746;11.780;2023-08-07T09:37:17;98909.25;;;18.44;100.00
57827;BME280;43656;57.746;11.780;2023-08-07T09:39:42;98894.63;;;18.40;100.00
57827;BME280;43656;57.746;11.780;2023-08-07T09:42:15;98888.31;;;18.44;100.00
57827;BME280;43656;57.746;11.780;2023-08-07T09:44:41;98896.09;;;18.51;100.00
57827;BME280;43656;57.746;11.780;2023-08-07T09:47:14;98908.44;;;18.62;100.00
57827;BME280;43656;57.746;11.780;2023-08-07T09:49:40;98918.41;;;18.86;100.00
57827;BME280;43656;57.746;11.780;2023-08-07T09:52:08;98916.78;;;18.85;100.00
57827;BME280;43656;57.746;11.780;2023-08-07T09:54:34;98913.88;;;18.81;100.00
57827;BME280;43656;57.746;11.780;2023-08-07T09:57:01;98902.88;;;18.67;100.00
57827;BME280;43656;57.746;11.780;2023-08-07T09:59:27;98895.22;;;18.69;100.00
57827;BME280;43656;57.746;11.780;2023-08-07T10:01:54;98898.59;;;18.80;100.00
57827;BME280;43656;57.746;11.780;2023-08-07T10:04:21;98905.19;;;18.93;100.00
57827;BME280;43656;57.746;11.780;2023-08-07T10:06:46;98900.34;;;18.90;100.00
57827;BME280;43656;57.746;11.780;2023-08-07T10:09:12;98898.72;;;18.89;100.00
57827;BME280;43656;57.746;11.780;2023-08-07T10:11:39;98894.34;;;18.74;100.00
57827;BME280;43656;57.746;11.780;2023-08-07T10:14:10;98880.44;;;18.75;100.00
57827;BME280;43656;57.746;11.780;2023-08-07T10:16:38;98861.25;;;18.81;100.00
57827;BME280;43656;57.746;11.780;2023-08-07T10:19:09;98879.69;;;18.70;100.00
57827;BME280;43656;57.746;11.780;2023-08-07T10:21:41;98876.00;;;18.80;100.00
57827;BME280;43656;57.746;11.780;2023-08-07T10:24:09;98870.13;;;18.72;100.00
57827;BME280;43656;57.746;11.780;2023-08-07T10:26:40;98866.38;;;18.68;100.00
57827;BME280;43656;57.746;11.780;2023-08-07T10:29:09;98874.22;;;18.70;100.00
57827;BME280;43656;57.746;11.780;2023-08-07T10:31:35;98863.88;;;18.72;100.00
57827;BME280;43656;57.746;11.780;2023-08-07T10:34:01;98851.63;;;18.69;100.00
57827;BME280;43656;57.746;11.780;2023-08-07T10:36:33;98862.38;;;18.80;100.00
57827;BME280;43656;57.746;11.780;2023-08-07T10:39:10;98867.53;;;18.81;100.00
57827;BME280;43656;57.746;11.780;2023-08-07T10:41:44;98860.66;;;18.84;100.00
57827;BME280;43656;57.746;11.780;2023-08-07T10:44:20;98865.31;;;18.97;100.00
57827;BME280;43656;57.746;11.780;2023-08-07T10:46:52;98845.22;;;18.79;100.00
57827;BME280;43656;57.746;11.780;2023-08-07T10:49:38;98845.44;;;18.83;100.00
57827;BME280;43656;57.746;11.780;2023-08-07T10:52:11;98865.44;;;18.92;100.00
57827;BME280;43656;57.746;11.780;2023-08-07T10:54:49;98861.28;;;19.08;100.00
57827;BME280;43656;57.746;11.780;2023-08-07T10:57:18;98850.59;;;18.98;100.00
57827;BME280;43656;57.746;11.780;2023-08-07T11:00:04;98853.81;;;19.00;100.00
57827;BME280;43656;57.746;11.780;2023-08-07T11:02:31;98863.09;;;18.99;100.00
57827;BME280;43656;57.746;11.780;2023-08-07T11:04:58;98861.69;;;19.01;100.00
57827;BME280;43656;57.746;11.780;2023-08-07T11:07:29;98862.50;;;19.02;100.00
57827;BME280;43656;57.746;11.780;2023-08-07T11:09:55;98867.44;;;19.00;100.00
57827;BME280;43656;57.746;11.780;2023-08-07T11:12:25;98875.53;;;19.05;100.00
57827;BME280;43656;57.746;11.780;2023-08-07T11:14:51;98873.41;;;19.02;100.00
57827;BME280;43656;57.746;11.780;2023-08-07T11:17:18;98860.59;;;19.02;100.00
57827;BME280;43656;57.746;11.780;2023-08-07T11:19:46;98864.50;;;19.10;100.00
57827;BME280;43656;57.746;11.780;2023-08-07T11:22:12;98872.00;;;19.18;100.00
57827;BME280;43656;57.746;11.780;2023-08-07T11:24:37;98866.84;;;19.03;100.00
57827;BME280;43656;57.746;11.780;2023-08-07T11:27:03;98822.31;;;18.80;100.00
57827;BME280;43656;57.746;11.780;2023-08-07T11:29:28;98861.28;;;18.94;100.00
57827;BME280;43656;57.746;11.780;2023-08-07T11:31:56;98869.16;;;19.10;100.00
57827;BME280;43656;57.746;11.780;2023-08-07T11:34:21;98869.38;;;19.13;100.00
57827;BME280;43656;57.746;11.780;2023-08-07T11:36:47;98868.28;;;19.14;100.00
57827;BME280;43656;57.746;11.780;2023-08-07T11:39:13;98835.44;;;18.92;100.00
57827;BME280;43656;57.746;11.780;2023-08-07T11:41:39;98836.66;;;19.13;100.00
57827;BME280;43656;57.746;11.780;2023-08-07T11:44:07;98862.63;;;19.24;100.00
57827;BME280;43656;57.746;11.780;2023-08-07T11:46:33;98859.78;;;19.16;100.00
57827;BME280;43656;57.746;11.780;2023-08-07T11:48:59;98843.44;;;19.02;100.00
57827;BME280;43656;57.746;11.780;2023-08-07T11:51:24;98841.91;;;18.96;100.00
57827;BME280;43656;57.746;11.780;2023-08-07T11:53:50;98830.41;;;18.85;100.00
57827;BME280;43656;57.746;11.780;2023-08-07T11:56:22;98830.81;;;18.92;100.00
57827;BME280;43656;57.746;11.780;2023-08-07T11:58:48;98842.50;;;18.93;100.00
57827;BME280;43656;57.746;11.780;2023-08-07T12:01:19;98836.66;;;18.86;100.00
57827;BME280;43656;57.746;11.780;2023-08-07T12:06:32;98841.09;;;18.95;100.00
57827;BME280;43656;57.746;11.780;2023-08-07T12:08:59;98857.66;;;18.99;100.00
57827;BME280;43656;57.746;11.780;2023-08-07T12:11:25;98859.97;;;19.06;100.00
57827;BME280;43656;57.746;11.780;2023-08-07T12:13:51;98864.94;;;19.17;100.00
57827;BME280;43656;57.746;11.780;2023-08-07T12:16:17;98842.22;;;19.08;100.00
57827;BME280;43656;57.746;11.780;2023-08-07T12:18:49;98821.31;;;18.90;100.00
57827;BME280;43656;57.746;11.780;2023-08-07T12:21:16;98818.91;;;18.88;100.00
57827;BME280;43656;57.746;11.780;2023-08-07T12:23:44;98822.31;;;18.80;100.00
57827;BME280;43656;57.746;11.780;2023-08-07T12:26:09;98821.91;;;18.87;100.00
57827;BME280;43656;57.746;11.780;2023-08-07T12:28:35;98822.53;;;18.97;100.00
57827;BME280;43656;57.746;11.780;2023-08-07T12:31:01;98813.25;;;18.98;100.00
57827;BME280;43656;57.746;11.780;2023-08-07T12:33:28;98806.56;;;19.18;100.00
57827;BME280;43656;57.746;11.780;2023-08-07T12:35:53;98800.00;;;19.19;100.00
57827;BME280;43656;57.746;11.780;2023-08-07T12:38:19;98815.75;;;19.22;100.00
57827;BME280;43656;57.746;11.780;2023-08-07T12:40:45;98813.81;;;19.23;100.00